Terminal Aerodrome Forecast
Issued by NWS Twin Cities, MN

Home | Current Version | Previous Version | Text Only | Print | Product List | Glossary Off
Versions: 1 2 3 4 5 6 7 8 9 10 11 12 13 14 15 16 17 18 19 20 21 22 23 24

000
FTUS43 KMPX 200800 AAA
TAFMSP
TAF AMD
KMSP 200820Z 2008/2112 00000KT P6SM SCT250
     FM201000 VRB02KT 6SM BR FEW006
      TEMPO 2010/2013 4SM BR SCT006 BKN011
     FM201400 14008KT P6SM SCT050 BKN250
     FM210600 13007KT P6SM BKN070 PROB30 2106/2112 4SM TSRA
      OVC050CB=

USA.gov is the U.S. government's official web portal to all federal, state and local government web resources and services.